Time;durP1;ratioP1;P1;durP2;ratioP2;P2;SDS_P1;SDS_P2;PMS_P1;PMS_P2;Temp;Humidity;BMP_temperature;BMP_pressure;BME280_temperature;BME280_humidity;BME280_pressure;Samples;Min_cycle;Max_cycle;Signal;HPM_P1;HPM_P2
2021/01/18 00:00:16;;;;;;;25.48;13.15;;;;;;;;;;5013222;28;20179;-79
2021/01/18 00:02:42;;;;;;;23.55;14.23;;;;;;;;;;5013447;28;20175;-78
2021/01/18 00:05:09;;;;;;;29.55;16.23;;;;;;;;;;5013136;28;20711;-77
2021/01/18 00:07:47;;;;;;;31.88;13.88;;;;;;;;;;5013360;28;20267;-78
2021/01/18 00:10:18;;;;;;;25.40;14.45;;;;;;;;;;5013280;28;20560;-78
2021/01/18 00:12:44;;;;;;;23.63;12.85;;;;;;;;;;5013338;28;20690;-79
2021/01/18 00:15:11;;;;;;;24.90;14.00;;;;;;;;;;5012801;28;20203;-79
2021/01/18 00:17:37;;;;;;;24.20;14.07;;;;;;;;;;5012054;28;20637;-77
2021/01/18 00:20:03;;;;;;;29.58;15.68;;;;;;;;;;5013520;28;20189;-77
2021/01/18 00:22:29;;;;;;;21.60;13.38;;;;;;;;;;5013347;28;20182;-77
2021/01/18 00:24:55;;;;;;;28.17;14.07;;;;;;;;;;5014568;28;20194;-76
2021/01/18 00:27:21;;;;;;;30.60;14.73;;;;;;;;;;5017126;28;20457;-77
2021/01/18 00:29:48;;;;;;;32.47;15.43;;;;;;;;;;5017078;28;20676;-78
2021/01/18 00:32:14;;;;;;;27.23;13.63;;;;;;;;;;5016734;28;20407;-78
2021/01/18 00:34:40;;;;;;;30.25;15.80;;;;;;;;;;5016477;28;20195;-76
2021/01/18 00:37:06;;;;;;;30.10;16.07;;;;;;;;;;5016895;28;20508;-78
2021/01/18 00:39:32;;;;;;;27.73;16.50;;;;;;;;;;5016808;28;20417;-78
2021/01/18 00:41:58;;;;;;;33.60;16.90;;;;;;;;;;5016684;28;20181;-76
2021/01/18 00:44:24;;;;;;;31.57;16.10;;;;;;;;;;5016197;28;20195;-78
2021/01/18 00:46:50;;;;;;;23.88;15.85;;;;;;;;;;5016518;28;20957;-77
2021/01/18 00:49:16;;;;;;;30.17;15.65;;;;;;;;;;5016623;28;20257;-77
2021/01/18 00:51:42;;;;;;;24.47;14.50;;;;;;;;;;5016547;28;20198;-78
2021/01/18 00:54:08;;;;;;;30.20;14.33;;;;;;;;;;5015983;28;20402;-77
2021/01/18 00:56:34;;;;;;;34.67;15.98;;;;;;;;;;5016272;28;20402;-76
2021/01/18 00:59:00;;;;;;;39.13;15.10;;;;;;;;;;5016371;28;20261;-77
2021/01/18 01:01:26;;;;;;;29.67;16.17;;;;;;;;;;5016614;28;20405;-76
2021/01/18 01:03:52;;;;;;;32.88;17.38;;;;;;;;;;5015992;28;20526;-76
2021/01/18 01:06:18;;;;;;;25.02;16.65;;;;;;;;;;5016268;28;20201;-78
2021/01/18 01:08:44;;;;;;;30.60;17.03;;;;;;;;;;5016068;28;20210;-76
2021/01/18 01:11:10;;;;;;;36.40;18.47;;;;;;;;;;5016357;28;20481;-78
2021/01/18 01:13:36;;;;;;;37.72;20.00;;;;;;;;;;5015832;28;20860;-77
2021/01/18 01:16:02;;;;;;;30.65;18.15;;;;;;;;;;5016081;28;20256;-79
2021/01/18 01:18:28;;;;;;;26.40;17.58;;;;;;;;;;5016166;28;20639;-77
2021/01/18 01:20:54;;;;;;;30.00;18.70;;;;;;;;;;5014888;28;20182;-78
2021/01/18 01:23:20;;;;;;;33.63;19.20;;;;;;;;;;5015935;28;20978;-77
2021/01/18 01:25:46;;;;;;;43.47;19.55;;;;;;;;;;5015609;28;20425;-76
2021/01/18 01:28:12;;;;;;;36.60;18.80;;;;;;;;;;5015808;28;20209;-77
2021/01/18 01:30:38;;;;;;;44.97;18.67;;;;;;;;;;5015835;28;20408;-77
2021/01/18 01:33:04;;;;;;;29.15;18.35;;;;;;;;;;5015742;28;20195;-76
2021/01/18 01:35:30;;;;;;;46.03;21.25;;;;;;;;;;5014893;28;20191;-78
2021/01/18 01:37:57;;;;;;;34.30;16.67;;;;;;;;;;5015471;28;20189;-77
2021/01/18 01:40:23;;;;;;;36.22;19.45;;;;;;;;;;5015707;28;20206;-76
2021/01/18 01:42:50;;;;;;;35.85;18.00;;;;;;;;;;5015548;28;20202;-76
2021/01/18 01:45:17;;;;;;;36.10;17.40;;;;;;;;;;5015133;28;20204;-76
2021/01/18 01:47:43;;;;;;;36.42;16.75;;;;;;;;;;5015421;28;20198;-78
2021/01/18 01:50:19;;;;;;;38.30;19.57;;;;;;;;;;5015408;28;20182;-78
2021/01/18 01:52:47;;;;;;;29.67;16.48;;;;;;;;;;5015357;28;20448;-76
2021/01/18 01:55:18;;;;;;;38.03;16.70;;;;;;;;;;5014806;28;20199;-77
2021/01/18 01:57:44;;;;;;;27.40;14.63;;;;;;;;;;5015446;28;20647;-76
2021/01/18 02:00:10;;;;;;;34.67;15.45;;;;;;;;;;5015321;28;20534;-76
2021/01/18 02:02:36;;;;;;;31.88;14.88;;;;;;;;;;5014076;28;20175;-78
2021/01/18 02:05:11;;;;;;;27.52;12.95;;;;;;;;;;5014667;28;20603;-77
2021/01/18 02:07:37;;;;;;;20.95;13.07;;;;;;;;;;5015358;28;20205;-77
2021/01/18 02:10:04;;;;;;;22.70;12.75;;;;;;;;;;5015242;28;20452;-77
2021/01/18 02:12:30;;;;;;;23.02;12.88;;;;;;;;;;5015190;28;20163;-78
2021/01/18 02:15:02;;;;;;;24.38;11.02;;;;;;;;;;5014521;28;20210;-78
2021/01/18 02:17:44;;;;;;;19.05;10.25;;;;;;;;;;5014926;28;20175;-76
2021/01/18 02:20:10;;;;;;;26.38;12.70;;;;;;;;;;5013605;28;20273;-77
2021/01/18 02:22:54;;;;;;;22.13;11.97;;;;;;;;;;5014809;28;20264;-78
2021/01/18 02:25:26;;;;;;;21.75;10.55;;;;;;;;;;5014474;28;20436;-77
2021/01/18 02:28:10;;;;;;;20.38;10.32;;;;;;;;;;5014986;28;20202;-77
2021/01/18 02:30:39;;;;;;;22.65;10.82;;;;;;;;;;5014784;28;20507;-78
2021/01/18 02:33:08;;;;;;;27.42;12.07;;;;;;;;;;5014704;28;20174;-79
2021/01/18 02:35:53;;;;;;;19.58;10.23;;;;;;;;;;5014247;28;20332;-78
2021/01/18 02:38:38;;;;;;;20.30;11.82;;;;;;;;;;5014639;28;20178;-77
2021/01/18 02:41:30;;;;;;;16.05;10.45;;;;;;;;;;5014454;28;20210;-77
2021/01/18 02:44:00;;;;;;;17.60;10.02;;;;;;;;;;4991229;28;20218;-77
2021/01/18 02:46:27;;;;;;;19.70;10.88;;;;;;;;;;5014484;28;20689;-77
2021/01/18 02:48:53;;;;;;;20.58;10.30;;;;;;;;;;5014083;28;20210;-78
2021/01/18 02:51:20;;;;;;;19.75;10.48;;;;;;;;;;5014208;28;20167;-76
2021/01/18 02:53:55;;;;;;;17.35;9.82;;;;;;;;;;5013918;28;20178;-77
2021/01/18 02:56:24;;;;;;;26.77;11.13;;;;;;;;;;5014374;28;20228;-77
2021/01/18 02:58:52;;;;;;;17.05;10.68;;;;;;;;;;5014198;28;20178;-76
2021/01/18 03:01:36;;;;;;;15.95;9.52;;;;;;;;;;5014074;28;20178;-75
2021/01/18 03:04:06;;;;;;;33.75;10.35;;;;;;;;;;5013824;28;20201;-77
2021/01/18 03:06:38;;;;;;;25.35;10.50;;;;;;;;;;5014095;28;20197;-76
2021/01/18 03:09:08;;;;;;;18.38;9.75;;;;;;;;;;5014027;28;20222;-77
2021/01/18 03:11:39;;;;;;;18.95;10.25;;;;;;;;;;5012710;28;20673;-76
2021/01/18 03:14:13;;;;;;;20.52;10.55;;;;;;;;;;5012422;28;20643;-77
2021/01/18 03:16:40;;;;;;;19.48;11.45;;;;;;;;;;5014078;28;20715;-76
2021/01/18 03:19:07;;;;;;;16.70;9.95;;;;;;;;;;5013874;28;20173;-76
2021/01/18 03:21:33;;;;;;;18.17;11.30;;;;;;;;;;5013928;28;20174;-77
2021/01/18 03:24:00;;;;;;;18.35;10.88;;;;;;;;;;5013322;28;20208;-76
2021/01/18 03:26:26;;;;;;;19.43;9.97;;;;;;;;;;5013950;28;20182;-77
2021/01/18 03:28:55;;;;;;;19.35;9.88;;;;;;;;;;5013810;28;20457;-77
2021/01/18 03:31:22;;;;;;;19.23;10.38;;;;;;;;;;5013786;28;20258;-78
2021/01/18 03:33:48;;;;;;;17.40;10.07;;;;;;;;;;5013177;28;20178;-75
2021/01/18 03:36:14;;;;;;;24.42;11.45;;;;;;;;;;5013381;28;20240;-77
2021/01/18 03:38:40;;;;;;;19.52;11.93;;;;;;;;;;5013659;28;20175;-78
2021/01/18 03:41:07;;;;;;;22.40;11.20;;;;;;;;;;5013517;28;20181;-75
2021/01/18 03:43:33;;;;;;;17.45;11.25;;;;;;;;;;5013121;28;20842;-78
2021/01/18 03:45:59;;;;;;;15.50;9.77;;;;;;;;;;5013317;28;20290;-77
2021/01/18 03:48:25;;;;;;;18.65;10.40;;;;;;;;;;5013583;28;20620;-77
2021/01/18 03:50:51;;;;;;;19.70;11.43;;;;;;;;;;5013625;28;20174;-78
2021/01/18 03:53:17;;;;;;;17.20;11.95;;;;;;;;;;5013496;28;20209;-78
2021/01/18 03:55:44;;;;;;;25.25;11.88;;;;;;;;;;5012968;28;20664;-77
2021/01/18 03:58:10;;;;;;;25.60;12.00;;;;;;;;;;5013283;28;20175;-78
2021/01/18 04:00:37;;;;;;;22.98;11.73;;;;;;;;;;5016352;28;20261;-77
2021/01/18 04:03:03;;;;;;;25.55;12.07;;;;;;;;;;5017730;28;20178;-76
2021/01/18 04:05:29;;;;;;;31.10;14.20;;;;;;;;;;5017363;28;20205;-76
2021/01/18 04:07:56;;;;;;;22.40;12.23;;;;;;;;;;5017267;28;20216;-77
2021/01/18 04:10:28;;;;;;;23.25;13.63;;;;;;;;;;5017424;28;20254;-77
2021/01/18 04:12:54;;;;;;;19.33;13.55;;;;;;;;;;5017271;28;20498;-77
2021/01/18 04:15:22;;;;;;;27.00;13.55;;;;;;;;;;5016730;28;20217;-75
2021/01/18 04:17:49;;;;;;;25.13;12.20;;;;;;;;;;5017333;28;20186;-77
2021/01/18 04:20:16;;;;;;;26.85;12.80;;;;;;;;;;5015917;28;20551;-77
2021/01/18 04:22:49;;;;;;;23.00;14.32;;;;;;;;;;5017123;28;20544;-77
2021/01/18 04:25:16;;;;;;;29.48;13.80;;;;;;;;;;5016697;28;20198;-75
2021/01/18 04:27:58;;;;;;;20.92;12.75;;;;;;;;;;5015739;28;20305;-76
2021/01/18 04:30:25;;;;;;;20.33;13.00;;;;;;;;;;5016957;28;20211;-77
2021/01/18 04:32:57;;;;;;;21.88;13.60;;;;;;;;;;5016984;28;20180;-77
2021/01/18 04:35:24;;;;;;;24.30;13.43;;;;;;;;;;5016334;28;20197;-78
2021/01/18 04:37:50;;;;;;;21.13;13.48;;;;;;;;;;5016931;28;20227;-75
2021/01/18 04:40:19;;;;;;;24.13;13.55;;;;;;;;;;5016770;28;20178;-78
2021/01/18 04:42:45;;;;;;;18.85;11.68;;;;;;;;;;5016909;28;20257;-76
2021/01/18 04:45:14;;;;;;;26.48;12.80;;;;;;;;;;5016403;28;20678;-79
2021/01/18 04:47:42;;;;;;;23.45;12.20;;;;;;;;;;5016619;28;20597;-78
2021/01/18 04:50:08;;;;;;;25.77;12.68;;;;;;;;;;5016385;28;20217;-77
2021/01/18 04:52:48;;;;;;;19.30;12.63;;;;;;;;;;5016430;28;20187;-76
2021/01/18 04:55:33;;;;;;;24.23;11.55;;;;;;;;;;5016076;28;20259;-76
2021/01/18 04:58:15;;;;;;;24.52;12.77;;;;;;;;;;5016348;28;20178;-77
2021/01/18 05:00:51;;;;;;;29.25;12.77;;;;;;;;;;5014962;28;20639;-76
2021/01/18 05:03:18;;;;;;;33.95;12.20;;;;;;;;;;5015059;28;20213;-76
2021/01/18 05:05:44;;;;;;;21.35;13.07;;;;;;;;;;5015912;28;20276;-76
2021/01/18 05:08:21;;;;;;;25.53;13.00;;;;;;;;;;5016151;28;20654;-75
2021/01/18 05:10:49;;;;;;;24.45;13.27;;;;;;;;;;5016008;28;20530;-75
2021/01/18 05:13:19;;;;;;;20.48;10.43;;;;;;;;;;5016114;28;20537;-77
2021/01/18 05:15:48;;;;;;;23.25;11.82;;;;;;;;;;5015692;28;20213;-77
2021/01/18 05:18:15;;;;;;;32.33;13.90;;;;;;;;;;5015967;28;20701;-77
2021/01/18 05:20:41;;;;;;;23.38;12.00;;;;;;;;;;5016119;28;20287;-76
2021/01/18 05:23:10;;;;;;;23.57;12.60;;;;;;;;;;5015988;28;20277;-76
2021/01/18 05:25:36;;;;;;;28.52;14.30;;;;;;;;;;5015548;28;20436;-75
2021/01/18 05:28:03;;;;;;;22.38;12.75;;;;;;;;;;5015936;28;20207;-76
2021/01/18 05:30:40;;;;;;;28.48;13.85;;;;;;;;;;5015952;28;20236;-78
2021/01/18 05:33:07;;;;;;;28.65;12.68;;;;;;;;;;5015989;28;20177;-76
2021/01/18 05:35:35;;;;;;;23.73;12.77;;;;;;;;;;5015445;28;20280;-78
2021/01/18 05:38:06;;;;;;;19.50;11.32;;;;;;;;;;5014506;28;20208;-76
2021/01/18 05:40:35;;;;;;;24.55;11.15;;;;;;;;;;5015639;28;20297;-78
2021/01/18 05:43:02;;;;;;;22.55;11.13;;;;;;;;;;5015626;28;20174;-76
2021/01/18 05:45:33;;;;;;;28.88;13.73;;;;;;;;;;5014916;28;20566;-77
2021/01/18 05:48:00;;;;;;;21.75;12.48;;;;;;;;;;5015604;28;20206;-75
2021/01/18 05:50:27;;;;;;;25.63;12.32;;;;;;;;;;5015406;28;20170;-79
2021/01/18 05:52:53;;;;;;;19.75;11.25;;;;;;;;;;5013930;28;20241;-77
2021/01/18 05:55:20;;;;;;;20.63;11.77;;;;;;;;;;5014953;28;20197;-77
2021/01/18 05:57:47;;;;;;;23.15;12.93;;;;;;;;;;5015292;28;20171;-77
2021/01/18 06:00:13;;;;;;;24.38;12.05;;;;;;;;;;5015188;28;20186;-78
2021/01/18 06:02:47;;;;;;;20.38;11.63;;;;;;;;;;5013962;28;20182;-75
2021/01/18 06:05:14;;;;;;;27.73;12.20;;;;;;;;;;5014794;28;20207;-77
2021/01/18 06:07:40;;;;;;;27.92;12.57;;;;;;;;;;5015143;28;20210;-77
2021/01/18 06:10:06;;;;;;;24.40;12.53;;;;;;;;;;5015239;28;20183;-76
2021/01/18 06:12:33;;;;;;;25.17;12.27;;;;;;;;;;5015428;28;20410;-76
2021/01/18 06:15:02;;;;;;;20.35;12.18;;;;;;;;;;5014410;28;20229;-77
2021/01/18 06:17:29;;;;;;;25.15;13.93;;;;;;;;;;5013825;28;20277;-76
2021/01/18 06:19:55;;;;;;;25.90;13.27;;;;;;;;;;5013860;28;20517;-80
2021/01/18 06:22:28;;;;;;;25.02;14.20;;;;;;;;;;5014640;28;20274;-78
2021/01/18 06:24:57;;;;;;;21.10;13.23;;;;;;;;;;5014100;28;20285;-76
2021/01/18 06:27:35;;;;;;;22.40;12.90;;;;;;;;;;5014631;28;20206;-77
2021/01/18 06:30:01;;;;;;;27.10;13.80;;;;;;;;;;5014654;28;20193;-76
2021/01/18 06:32:28;;;;;;;27.55;14.02;;;;;;;;;;5014668;28;20249;-76
2021/01/18 06:35:00;;;;;;;31.45;16.15;;;;;;;;;;5014424;28;20242;-79
2021/01/18 06:37:30;;;;;;;25.77;13.15;;;;;;;;;;5014467;28;20215;-78
2021/01/18 06:39:57;;;;;;;34.70;14.02;;;;;;;;;;5013267;28;20170;-78
2021/01/18 06:42:23;;;;;;;25.25;13.43;;;;;;;;;;5014483;28;20175;-79
2021/01/18 06:44:50;;;;;;;27.48;15.23;;;;;;;;;;5014194;28;20202;-78
2021/01/18 06:47:28;;;;;;;25.20;13.68;;;;;;;;;;5014127;28;20225;-78
2021/01/18 06:49:59;;;;;;;25.15;13.40;;;;;;;;;;5014317;28;20300;-77
2021/01/18 06:52:26;;;;;;;24.50;13.23;;;;;;;;;;5014532;28;20175;-77
2021/01/18 06:54:58;;;;;;;29.63;14.65;;;;;;;;;;5013826;28;20602;-79
2021/01/18 06:57:43;;;;;;;32.03;13.80;;;;;;;;;;5014107;28;20202;-76
2021/01/18 07:00:12;;;;;;;25.80;13.00;;;;;;;;;;5014192;28;20180;-77
2021/01/18 07:02:38;;;;;;;32.95;15.20;;;;;;;;;;5014181;28;20179;-75
2021/01/18 07:05:06;;;;;;;27.50;13.75;;;;;;;;;;5013716;28;20248;-80
2021/01/18 07:07:33;;;;;;;21.55;12.35;;;;;;;;;;5013843;28;20213;-76
2021/01/18 07:10:00;;;;;;;35.78;13.68;;;;;;;;;;5014035;28;20172;-78
2021/01/18 07:12:27;;;;;;;25.95;13.07;;;;;;;;;;5014133;28;20208;-78
2021/01/18 07:14:57;;;;;;;28.02;13.10;;;;;;;;;;5013585;28;20611;-76
2021/01/18 07:17:29;;;;;;;25.27;14.00;;;;;;;;;;5014344;28;20515;-78
2021/01/18 07:19:58;;;;;;;31.38;14.48;;;;;;;;;;5013870;28;20249;-78
2021/01/18 07:22:27;;;;;;;23.23;12.40;;;;;;;;;;5013913;28;20179;-76
2021/01/18 07:24:58;;;;;;;19.40;11.95;;;;;;;;;;5013641;28;20733;-78
2021/01/18 07:27:25;;;;;;;25.10;13.15;;;;;;;;;;5012470;28;20678;-76
2021/01/18 07:29:51;;;;;;;37.88;14.43;;;;;;;;;;5013878;28;20163;-76
2021/01/18 07:32:17;;;;;;;31.15;13.68;;;;;;;;;;5013647;28;20190;-76
2021/01/18 07:34:43;;;;;;;22.02;11.27;;;;;;;;;;5012496;28;20565;-76
2021/01/18 07:37:10;;;;;;;28.48;13.65;;;;;;;;;;5013765;28;20315;-75
2021/01/18 07:39:38;;;;;;;24.60;12.50;;;;;;;;;;5013595;28;20659;-77
2021/01/18 07:42:05;;;;;;;24.80;11.73;;;;;;;;;;5013573;28;20550;-76
2021/01/18 07:44:44;;;;;;;25.48;13.45;;;;;;;;;;5017023;28;20284;-75
2021/01/18 07:47:11;;;;;;;34.08;13.52;;;;;;;;;;5033040;28;20200;-76
2021/01/18 07:49:38;;;;;;;24.80;12.43;;;;;;;;;;5033264;28;20568;-77
2021/01/18 07:52:13;;;;;;;26.08;12.45;;;;;;;;;;5033193;28;20538;-77
2021/01/18 07:54:39;;;;;;;26.38;13.30;;;;;;;;;;5031528;28;20196;-76
2021/01/18 07:57:24;;;;;;;23.25;13.23;;;;;;;;;;5033195;28;20537;-77
2021/01/18 07:59:50;;;;;;;32.55;14.15;;;;;;;;;;5032944;28;20516;-76
2021/01/18 08:02:23;;;;;;;25.15;15.00;;;;;;;;;;5033078;28;20541;-76
2021/01/18 08:04:49;;;;;;;26.42;12.82;;;;;;;;;;5032639;28;20194;-77
2021/01/18 08:07:15;;;;;;;28.90;16.00;;;;;;;;;;5031612;28;20670;-77
2021/01/18 08:09:41;;;;;;;30.48;13.77;;;;;;;;;;5031641;28;20277;-76
2021/01/18 08:12:26;;;;;;;23.23;13.70;;;;;;;;;;5031518;28;20256;-76
2021/01/18 08:14:52;;;;;;;49.60;16.52;;;;;;;;;;5032672;28;20617;-75
2021/01/18 08:17:17;;;;;;;30.13;14.30;;;;;;;;;;5033234;28;20186;-75
2021/01/18 08:20:02;;;;;;;28.75;14.48;;;;;;;;;;5031579;28;20444;-76
2021/01/18 08:22:29;;;;;;;25.23;13.38;;;;;;;;;;5031743;28;20277;-79
2021/01/18 08:24:55;;;;;;;30.92;12.90;;;;;;;;;;5032602;28;20252;-77
2021/01/18 08:27:46;;;;;;;29.52;14.60;;;;;;;;;;5032826;28;20202;-76
2021/01/18 08:30:31;;;;;;;29.10;14.77;;;;;;;;;;5032756;28;20181;-75
2021/01/18 08:32:56;;;;;;;35.63;13.30;;;;;;;;;;5032891;28;20176;-75
2021/01/18 08:35:27;;;;;;;30.05;15.55;;;;;;;;;;5032349;28;20590;-77
2021/01/18 08:38:00;;;;;;;30.20;14.23;;;;;;;;;;5032786;28;20178;-76
2021/01/18 08:40:33;;;;;;;22.55;13.18;;;;;;;;;;5033010;28;20178;-77
2021/01/18 08:42:59;;;;;;;28.67;14.07;;;;;;;;;;5033023;28;20174;-76
2021/01/18 08:45:29;;;;;;;33.40;15.80;;;;;;;;;;5033194;28;20201;-75
2021/01/18 08:48:02;;;;;;;25.48;15.13;;;;;;;;;;5036437;28;20542;-77
2021/01/18 08:50:35;;;;;;;30.98;15.23;;;;;;;;;;5036110;28;20224;-75
2021/01/18 08:53:02;;;;;;;30.95;15.65;;;;;;;;;;5036322;28;20232;-76
2021/01/18 08:55:28;;;;;;;24.92;15.48;;;;;;;;;;5035806;28;20190;-75
2021/01/18 08:57:55;;;;;;;32.70;16.40;;;;;;;;;;5034739;28;20234;-77
2021/01/18 09:00:22;;;;;;;30.95;16.67;;;;;;;;;;5035959;28;20416;-78
2021/01/18 09:02:48;;;;;;;32.45;16.50;;;;;;;;;;5036196;28;20178;-76
2021/01/18 09:05:21;;;;;;;34.38;16.85;;;;;;;;;;5034329;28;20202;-77
2021/01/18 09:07:48;;;;;;;29.85;16.33;;;;;;;;;;5035781;28;20210;-78
2021/01/18 09:10:15;;;;;;;24.00;13.43;;;;;;;;;;5035766;28;20506;-76
2021/01/18 09:12:44;;;;;;;23.58;14.38;;;;;;;;;;5035827;28;20668;-77
2021/01/18 09:15:11;;;;;;;27.58;13.88;;;;;;;;;;5035366;28;20212;-77
2021/01/18 09:17:37;;;;;;;28.50;12.68;;;;;;;;;;5035980;28;20181;-78
2021/01/18 09:20:04;;;;;;;28.08;15.43;;;;;;;;;;5035756;28;20179;-77
2021/01/18 09:22:30;;;;;;;25.38;13.13;;;;;;;;;;5035544;28;20174;-75
2021/01/18 09:24:56;;;;;;;24.20;12.07;;;;;;;;;;5035002;28;20204;-76
2021/01/18 09:27:24;;;;;;;21.45;12.70;;;;;;;;;;5035561;28;20190;-78
2021/01/18 09:30:05;;;;;;;28.10;11.60;;;;;;;;;;5035613;28;20175;-77
2021/01/18 09:32:31;;;;;;;21.33;11.80;;;;;;;;;;5035385;28;20174;-77
2021/01/18 09:35:10;;;;;;;18.92;11.63;;;;;;;;;;5035403;28;20531;-76
2021/01/18 09:37:43;;;;;;;24.55;11.85;;;;;;;;;;5035744;28;20193;-74
2021/01/18 09:40:10;;;;;;;28.23;11.73;;;;;;;;;;5035557;28;20178;-75
2021/01/18 09:42:36;;;;;;;21.27;10.38;;;;;;;;;;5035285;28;20525;-76
2021/01/18 09:45:07;;;;;;;30.45;18.42;;;;;;;;;;5034808;28;20189;-77
2021/01/18 09:47:32;;;;;;;16.15;7.97;;;;;;;;;;5035277;28;20534;-77
2021/01/18 09:50:12;;;;;;;20.07;10.23;;;;;;;;;;5035441;28;20178;-75
2021/01/18 09:52:42;;;;;;;38.90;11.00;;;;;;;;;;5033814;28;20445;-78
2021/01/18 09:55:18;;;;;;;19.45;9.65;;;;;;;;;;5034685;28;20193;-76
2021/01/18 09:57:46;;;;;;;19.10;9.70;;;;;;;;;;5034241;28;20232;-77
2021/01/18 10:00:13;;;;;;;13.73;8.43;;;;;;;;;;5035027;28;20179;-77
2021/01/18 10:02:43;;;;;;;23.77;8.30;;;;;;;;;;5034937;28;20178;-75
2021/01/18 10:05:10;;;;;;;20.58;8.02;;;;;;;;;;5034501;28;20203;-77
2021/01/18 10:07:42;;;;;;;19.38;8.15;;;;;;;;;;5034999;28;20205;-76
2021/01/18 10:10:08;;;;;;;11.82;6.60;;;;;;;;;;5034865;28;20201;-76
2021/01/18 10:12:37;;;;;;;21.80;8.32;;;;;;;;;;5034816;28;20611;-74
2021/01/18 10:15:04;;;;;;;12.30;7.20;;;;;;;;;;5033083;28;20217;-77
2021/01/18 10:17:31;;;;;;;16.13;6.72;;;;;;;;;;5034725;28;20179;-77
2021/01/18 10:20:07;;;;;;;8.43;4.15;;;;;;;;;;5034729;28;20182;-76
2021/01/18 10:22:37;;;;;;;16.40;6.30;;;;;;;;;;5034589;28;20178;-76
2021/01/18 10:25:08;;;;;;;25.40;6.57;;;;;;;;;;5034079;28;20240;-77
2021/01/18 10:27:35;;;;;;;12.65;6.50;;;;;;;;;;5034437;28;20209;-75
2021/01/18 10:30:13;;;;;;;12.60;6.00;;;;;;;;;;5034530;28;20197;-77
2021/01/18 10:32:39;;;;;;;14.50;6.40;;;;;;;;;;5034340;28;20173;-77
2021/01/18 10:35:23;;;;;;;10.23;5.38;;;;;;;;;;5033792;28;20216;-76
2021/01/18 10:37:49;;;;;;;9.75;6.40;;;;;;;;;;5034535;28;20221;-76
2021/01/18 10:40:20;;;;;;;14.63;6.30;;;;;;;;;;5034687;28;20533;-75
2021/01/18 10:42:50;;;;;;;17.83;6.53;;;;;;;;;;5034539;28;20174;-74
2021/01/18 10:45:17;;;;;;;10.40;5.50;;;;;;;;;;5033552;28;20207;-74
2021/01/18 10:47:53;;;;;;;14.18;5.85;;;;;;;;;;5034146;28;20252;-77
2021/01/18 10:50:23;;;;;;;14.25;5.65;;;;;;;;;;5034166;28;20647;-77
2021/01/18 10:52:49;;;;;;;13.50;5.30;;;;;;;;;;5023788;28;20190;-75
2021/01/18 10:55:17;;;;;;;10.38;4.20;;;;;;;;;;5011207;28;20209;-75
2021/01/18 10:57:45;;;;;;;9.65;5.22;;;;;;;;;;5012227;28;20649;-76
2021/01/18 11:00:20;;;;;;;17.38;5.78;;;;;;;;;;5012174;28;20207;-79
2021/01/18 11:03:07;;;;;;;14.35;4.28;;;;;;;;;;5012520;28;20268;-77
2021/01/18 11:05:34;;;;;;;8.93;4.05;;;;;;;;;;5012394;28;20254;-77
2021/01/18 11:08:02;;;;;;;10.80;4.38;;;;;;;;;;5011332;28;20213;-77
2021/01/18 11:10:29;;;;;;;8.90;4.97;;;;;;;;;;5011516;28;20181;-74
2021/01/18 11:13:05;;;;;;;11.27;4.90;;;;;;;;;;5011104;28;20689;-77
2021/01/18 11:15:33;;;;;;;6.65;3.40;;;;;;;;;;5010839;28;20582;-76
2021/01/18 11:17:59;;;;;;;13.82;3.75;;;;;;;;;;5012830;28;20217;-76
2021/01/18 11:20:26;;;;;;;10.90;4.68;;;;;;;;;;5012490;28;20265;-76
2021/01/18 11:22:52;;;;;;;15.50;4.13;;;;;;;;;;5011623;28;20184;-75
2021/01/18 11:25:19;;;;;;;11.40;3.50;;;;;;;;;;5011924;28;20202;-76
2021/01/18 11:27:45;;;;;;;14.75;3.75;;;;;;;;;;5012106;28;20461;-75
2021/01/18 11:30:11;;;;;;;7.65;2.88;;;;;;;;;;5011623;28;20188;-76
2021/01/18 11:32:46;;;;;;;8.25;3.50;;;;;;;;;;5012233;28;20546;-76
2021/01/18 11:35:14;;;;;;;10.50;3.65;;;;;;;;;;5012026;28;20194;-77
2021/01/18 11:37:40;;;;;;;12.95;3.35;;;;;;;;;;5011125;28;20183;-74
2021/01/18 11:40:07;;;;;;;8.18;2.92;;;;;;;;;;5012294;28;20181;-74
2021/01/18 11:42:33;;;;;;;7.88;2.90;;;;;;;;;;5012031;28;20182;-75
2021/01/18 11:45:00;;;;;;;7.97;3.05;;;;;;;;;;5011157;28;20685;-74
2021/01/18 11:47:32;;;;;;;6.43;3.22;;;;;;;;;;5011547;28;20210;-77
2021/01/18 11:49:58;;;;;;;11.48;3.60;;;;;;;;;;5012298;28;20185;-78
2021/01/18 11:52:24;;;;;;;12.40;3.75;;;;;;;;;;5011070;28;20179;-77
2021/01/18 11:54:50;;;;;;;13.30;3.65;;;;;;;;;;5010412;28;20567;-75
2021/01/18 11:57:16;;;;;;;8.65;2.55;;;;;;;;;;5021489;28;20309;-79
2021/01/18 11:59:42;;;;;;;10.53;3.93;;;;;;;;;;5031009;28;20281;-75
2021/01/18 12:02:08;;;;;;;14.10;3.07;;;;;;;;;;5031446;28;20430;-78
2021/01/18 12:04:34;;;;;;;14.47;3.37;;;;;;;;;;5031399;28;20444;-75
2021/01/18 12:07:00;;;;;;;11.57;3.85;;;;;;;;;;5030414;28;20456;-76
2021/01/18 12:09:26;;;;;;;6.10;2.60;;;;;;;;;;5032066;28;20658;-75
2021/01/18 12:11:54;;;;;;;6.40;2.40;;;;;;;;;;5020695;28;20189;-77
2021/01/18 12:14:20;;;;;;;6.05;2.80;;;;;;;;;;5014947;28;20575;-75
2021/01/18 12:16:46;;;;;;;10.73;3.22;;;;;;;;;;5010421;28;20419;-76
2021/01/18 12:19:14;;;;;;;8.50;3.13;;;;;;;;;;5011173;28;20190;-74
2021/01/18 12:21:43;;;;;;;5.47;2.30;;;;;;;;;;5012321;28;20497;-74
2021/01/18 12:24:09;;;;;;;10.32;3.00;;;;;;;;;;5013914;28;20677;-76
2021/01/18 12:26:35;;;;;;;8.93;2.95;;;;;;;;;;5015462;28;20186;-77
2021/01/18 12:29:01;;;;;;;9.20;3.50;;;;;;;;;;5014226;28;20457;-75
2021/01/18 12:31:27;;;;;;;5.57;3.20;;;;;;;;;;5015110;28;20195;-73
2021/01/18 12:33:55;;;;;;;7.28;3.53;;;;;;;;;;5015216;28;20412;-73
2021/01/18 12:36:21;;;;;;;10.23;2.92;;;;;;;;;;5014250;28;20266;-74
2021/01/18 12:38:47;;;;;;;6.90;2.17;;;;;;;;;;5015866;28;20267;-75
2021/01/18 12:41:13;;;;;;;11.50;3.63;;;;;;;;;;5013870;28;20556;-73
2021/01/18 12:43:39;;;;;;;7.93;2.65;;;;;;;;;;5014537;28;20425;-76
2021/01/18 12:46:05;;;;;;;10.13;3.90;;;;;;;;;;5013606;28;20203;-74
2021/01/18 12:48:31;;;;;;;9.35;2.90;;;;;;;;;;5014253;28;20205;-73
2021/01/18 12:50:57;;;;;;;8.20;3.20;;;;;;;;;;5014081;28;20268;-74
2021/01/18 12:56:08;;;;;;;9.13;2.65;;;;;;;;;;5013187;28;20223;-75
2021/01/18 12:58:34;;;;;;;10.63;2.75;;;;;;;;;;5029731;28;20186;-75
2021/01/18 13:01:00;;;;;;;4.47;2.40;;;;;;;;;;5029898;28;20603;-76
2021/01/18 13:03:26;;;;;;;11.48;3.83;;;;;;;;;;5030376;28;20414;-73
2021/01/18 13:05:52;;;;;;;9.37;3.87;;;;;;;;;;5013492;28;20200;-76
2021/01/18 13:08:18;;;;;;;4.85;2.88;;;;;;;;;;5015027;28;20489;-76
2021/01/18 13:10:44;;;;;;;6.03;2.35;;;;;;;;;;5014588;28;20510;-75
2021/01/18 13:13:10;;;;;;;8.13;2.50;;;;;;;;;;5014167;28;20215;-74
2021/01/18 13:15:36;;;;;;;10.15;3.40;;;;;;;;;;5013949;28;20449;-75
2021/01/18 13:18:02;;;;;;;7.18;3.15;;;;;;;;;;5014863;28;20682;-75
2021/01/18 13:20:28;;;;;;;9.55;2.72;;;;;;;;;;5013715;28;20194;-77
2021/01/18 13:22:54;;;;;;;16.75;3.08;;;;;;;;;;5014485;28;20189;-75
2021/01/18 13:25:20;;;;;;;6.30;2.35;;;;;;;;;;5014265;28;20256;-75
2021/01/18 13:27:46;;;;;;;8.67;2.93;;;;;;;;;;5013457;28;20565;-75
2021/01/18 13:30:13;;;;;;;7.10;2.73;;;;;;;;;;5014424;28;20410;-76
2021/01/18 13:32:39;;;;;;;10.88;2.92;;;;;;;;;;5012808;28;20421;-74
2021/01/18 13:35:06;;;;;;;7.25;3.03;;;;;;;;;;5013419;28;20268;-74
2021/01/18 13:37:32;;;;;;;11.32;2.90;;;;;;;;;;5014117;28;20641;-73
2021/01/18 13:39:58;;;;;;;10.13;3.85;;;;;;;;;;5013965;28;20273;-75
2021/01/18 13:42:24;;;;;;;7.75;2.72;;;;;;;;;;5013098;28;20681;-73
2021/01/18 13:44:50;;;;;;;8.07;3.17;;;;;;;;;;5013892;28;20256;-77
2021/01/18 13:47:17;;;;;;;5.82;2.70;;;;;;;;;;5014702;28;20288;-76
2021/01/18 13:49:43;;;;;;;9.65;2.72;;;;;;;;;;5015822;28;20168;-77
2021/01/18 13:52:09;;;;;;;10.07;2.80;;;;;;;;;;5015475;28;20513;-75
2021/01/18 13:54:35;;;;;;;14.23;3.17;;;;;;;;;;5014819;28;20198;-76
2021/01/18 13:59:37;;;;;;;13.25;4.38;;;;;;;;;;5003607;22;20644;-75
2021/01/18 14:02:03;;;;;;;13.90;3.35;;;;;;;;;;5013787;28;20200;-76
2021/01/18 14:04:29;;;;;;;6.00;2.40;;;;;;;;;;5013011;28;20278;-75
2021/01/18 14:06:57;;;;;;;7.90;3.00;;;;;;;;;;5012688;28;20225;-74
2021/01/18 14:09:26;;;;;;;8.07;2.80;;;;;;;;;;5013268;28;20428;-75
2021/01/18 14:11:53;;;;;;;13.38;3.40;;;;;;;;;;5013758;28;20233;-73
2021/01/18 14:14:19;;;;;;;16.58;2.83;;;;;;;;;;5011293;28;20184;-73
2021/01/18 14:16:47;;;;;;;8.20;2.97;;;;;;;;;;5012181;28;20183;-74
2021/01/18 14:19:14;;;;;;;12.18;4.25;;;;;;;;;;5013274;28;20196;-73
2021/01/18 14:21:39;;;;;;;8.18;3.28;;;;;;;;;;5012699;28;20607;-73
2021/01/18 14:24:06;;;;;;;12.93;3.23;;;;;;;;;;5012977;28;20184;-75
2021/01/18 14:26:34;;;;;;;9.73;3.10;;;;;;;;;;5013032;28;20783;-73
2021/01/18 14:29:00;;;;;;;6.15;2.75;;;;;;;;;;5011510;28;20215;-76
2021/01/18 14:31:27;;;;;;;15.05;2.80;;;;;;;;;;5013409;28;20186;-77
2021/01/18 14:33:55;;;;;;;7.90;2.47;;;;;;;;;;5012559;28;20640;-74
2021/01/18 14:36:22;;;;;;;9.18;3.05;;;;;;;;;;5012694;28;20186;-76